This is the latest recevied weather packets stored in our database for station/object DL8BGD. If no packets are shown the sender has not sent any weather packets the latest 10 day(s).
| Time | Temp. | Humidity | Pressure | Rain* | Wind** | Luminosity | Snow |
|---|---|---|---|---|---|---|---|
| 1778007781 | 14.44° C | 57% | 1010.1 hPa | 0 mm | - | - | - |
| 1778007180 | 15° C | 56% | 1009.9 hPa | 0 mm | - | - | - |
| 1778006580 | 15.56° C | 54% | 1009.8 hPa | 0 mm | - | - | - |
| 1778005980 | 16.11° C | 53% | 1009.6 hPa | 0 mm | - | - | - |
| 1778005379 | 16.11° C | 52% | 1009.5 hPa | 0 mm | - | - | - |
| 1778004779 | 16.67° C | 49% | 1009.3 hPa | 0 mm | - | - | - |
| 1778004179 | 17.22° C | 47% | 1009.3 hPa | 0 mm | - | - | - |
| 1778003578 | 17.78° C | 45% | 1009.2 hPa | 0 mm | - | - | - |
| 1778002978 | 17.78° C | 45% | 1009.1 hPa | 0 mm | - | - | - |
| 1778002377 | 18.89° C | 41% | 1009 hPa | 0 mm | - | - | - |
| 1777924850 | 15.56° C | 57% | 1015.2 hPa | 0 mm | - | - | - |
| 1777924250 | 15.56° C | 57% | 1015.2 hPa | 0 mm | - | - | - |
| 1777923650 | 16.11° C | 56% | 1015.1 hPa | 0 mm | - | - | - |
| 1777923049 | 16.67° C | 55% | 1015.1 hPa | 0 mm | - | - | - |
| 1777922449 | 17.22° C | 55% | 1015.1 hPa | 0 mm | - | - | - |
| 1777921849 | 17.22° C | 55% | 1015 hPa | 0 mm | - | - | - |
| 1777921248 | 17.78° C | 55% | 1014.8 hPa | 0 mm | - | - | - |
| 1777920648 | 17.78° C | 53% | 1014.6 hPa | 0 mm | - | - | - |
| 1777920047 | 18.33° C | 52% | 1014.5 hPa | 0 mm | - | - | - |
| 1777919447 | 19.44° C | 50% | 1014.5 hPa | 0 mm | - | - | - |
| 1777918847 | 19.44° C | 49% | 1014.4 hPa | 0 mm | - | - | - |
| 1777918246 | 20° C | 49% | 1014.4 hPa | 0 mm | - | - | - |
| 1777917646 | 20.56° C | 48% | 1014.3 hPa | 0 mm | - | - | - |
| 1777917046 | 20.56° C | 48% | 1014.2 hPa | 0 mm | - | - | - |
| 1777916445 | 21.11° C | 47% | 1014.2 hPa | 0 mm | - | - | - |
* Rain since midnight (hover to see other rain measurements)
** Current wind speed in m/s (hover to see current wind gust speed)